createdAt,value
2022-11-06T00:01:24.431Z,5.50
2022-11-06T00:03:54.098Z,5.40
2022-11-06T00:06:42.146Z,5.30
2022-11-06T00:09:13.329Z,5.20
2022-11-06T00:11:42.817Z,5.20
2022-11-06T00:14:11.676Z,5.10
2022-11-06T00:16:43.756Z,5.00
2022-11-06T00:19:13.577Z,4.80
2022-11-06T00:21:44.968Z,4.70
2022-11-06T00:24:15.587Z,4.50
2022-11-06T00:26:45.848Z,4.30
2022-11-06T00:29:16.966Z,4.30
2022-11-06T00:31:45.176Z,4.30
2022-11-06T00:34:13.402Z,4.40
2022-11-06T00:36:42.786Z,4.50
2022-11-06T00:39:12.583Z,4.70
2022-11-06T00:41:40.612Z,4.70
2022-11-06T00:44:10.703Z,4.80
2022-11-06T00:46:39.041Z,4.90
2022-11-06T00:49:07.536Z,5.00
2022-11-06T00:51:39.364Z,5.00
2022-11-06T00:54:12.717Z,4.90
2022-11-06T00:56:41.366Z,4.70
2022-11-06T00:59:14.030Z,4.60
2022-11-06T01:01:45.133Z,4.60
2022-11-06T01:04:17.341Z,4.80
2022-11-06T01:06:56.961Z,4.80
2022-11-06T01:09:29.630Z,4.80
2022-11-06T01:12:15.888Z,4.70
2022-11-06T01:14:45.327Z,4.50
2022-11-06T01:17:14.617Z,4.30
2022-11-06T01:19:42.758Z,4.10
2022-11-06T01:22:11.712Z,4.00
2022-11-06T01:24:41.553Z,3.90
2022-11-06T01:27:26.929Z,4.00
2022-11-06T01:29:55.902Z,4.10
2022-11-06T01:32:24.003Z,4.20
2022-11-06T01:34:52.859Z,4.10
2022-11-06T01:37:20.912Z,4.00
2022-11-06T01:39:51.792Z,3.90
2022-11-06T01:42:22.746Z,3.90
2022-11-06T01:45:38.843Z,4.10
2022-11-06T01:48:08.232Z,4.30
2022-11-06T01:50:36.717Z,4.30
2022-11-06T01:53:06.332Z,4.20
2022-11-06T01:55:43.043Z,4.30
2022-11-06T01:58:16.897Z,4.20
2022-11-06T02:00:46.279Z,4.20
2022-11-06T02:03:14.513Z,4.00
2022-11-06T02:05:43.428Z,3.90
2022-11-06T02:08:18.222Z,3.80
2022-11-06T02:10:48.825Z,3.80
2022-11-06T02:13:32.556Z,3.70
2022-11-06T02:16:17.318Z,3.60
2022-11-06T02:19:22.733Z,3.60
2022-11-06T02:22:26.924Z,3.50
2022-11-06T02:25:20.537Z,3.60
2022-11-06T02:28:03.202Z,3.80
2022-11-06T02:31:06.733Z,4.00
2022-11-06T02:33:39.988Z,4.10
2022-11-06T02:36:14.083Z,4.00
2022-11-06T02:38:48.719Z,3.90
2022-11-06T02:41:24.282Z,3.80
2022-11-06T02:43:58.176Z,3.70
2022-11-06T02:46:33.371Z,3.60
2022-11-06T02:49:08.593Z,3.40
2022-11-06T02:51:44.673Z,3.20
2022-11-06T02:54:14.725Z,3.20
2022-11-06T02:56:47.252Z,3.20
2022-11-06T02:59:24.564Z,3.20
2022-11-06T03:01:59.196Z,3.10
2022-11-06T03:04:34.678Z,2.90
2022-11-06T03:07:12.834Z,2.80
2022-11-06T03:09:41.718Z,2.80
2022-11-06T03:12:23.393Z,2.90
2022-11-06T03:15:00.788Z,2.90
2022-11-06T03:17:42.183Z,3.00
2022-11-06T03:20:22.484Z,3.10
2022-11-06T03:22:58.734Z,3.20
2022-11-06T03:25:33.157Z,3.30
2022-11-06T03:28:09.515Z,3.30
2022-11-06T03:30:44.435Z,3.40
2022-11-06T03:33:22.628Z,3.20
2022-11-06T03:35:58.148Z,3.10
2022-11-06T03:38:31.795Z,3.10
2022-11-06T03:41:07.811Z,3.10
2022-11-06T03:43:38.120Z,3.00
2022-11-06T03:46:14.958Z,3.00
2022-11-06T03:48:50.415Z,3.10
2022-11-06T03:51:23.232Z,3.20
2022-11-06T03:53:57.547Z,3.30
2022-11-06T03:56:35.405Z,3.40
2022-11-06T03:59:06.964Z,3.30
2022-11-06T04:01:44.397Z,3.20
2022-11-06T04:04:20.035Z,3.20
2022-11-06T04:06:53.416Z,3.30
2022-11-06T04:09:45.305Z,3.30
2022-11-06T04:12:38.222Z,3.20
2022-11-06T04:15:11.296Z,3.20
2022-11-06T04:17:42.748Z,3.10
2022-11-06T04:20:37.130Z,3.10
2022-11-06T04:23:21.101Z,3.00
2022-11-06T04:26:18.860Z,2.80
2022-11-06T04:28:59.141Z,3.20
2022-11-06T04:31:43.221Z,3.30
2022-11-06T04:34:26.856Z,3.30
2022-11-06T04:37:07.508Z,3.20
2022-11-06T04:39:49.038Z,3.10
2022-11-06T04:42:29.225Z,2.90
2022-11-06T04:45:06.090Z,2.80
2022-11-06T04:47:37.030Z,2.70
2022-11-06T04:50:10.732Z,3.00
2022-11-06T04:52:42.630Z,2.90
2022-11-06T04:55:10.926Z,2.80
2022-11-06T04:57:39.093Z,2.80
2022-11-06T05:00:13.240Z,2.70
2022-11-06T05:02:41.522Z,2.60
2022-11-06T05:05:11.394Z,2.50
2022-11-06T05:07:39.516Z,2.50
2022-11-06T05:10:09.542Z,2.50
2022-11-06T05:12:37.605Z,2.40
2022-11-06T05:15:06.953Z,2.50
2022-11-06T05:17:36.632Z,2.60
2022-11-06T05:20:06.748Z,2.70
2022-11-06T05:22:58.237Z,2.70
2022-11-06T05:25:26.830Z,2.70
2022-11-06T05:27:54.974Z,2.60
2022-11-06T05:30:23.124Z,2.60
2022-11-06T05:32:51.862Z,2.50
2022-11-06T05:35:21.766Z,2.30
2022-11-06T05:37:51.156Z,2.20
2022-11-06T05:40:19.281Z,2.10
2022-11-06T05:42:47.323Z,2.00
2022-11-06T05:45:15.448Z,2.00
2022-11-06T05:47:43.752Z,2.10
2022-11-06T05:50:12.186Z,2.10
2022-11-06T05:52:40.239Z,2.20
2022-11-06T05:55:14.671Z,2.30
2022-11-06T05:57:43.173Z,2.30
2022-11-06T06:00:14.188Z,2.10
2022-11-06T06:02:43.026Z,1.90
2022-11-06T06:05:11.288Z,1.80
2022-11-06T06:07:39.381Z,1.80
2022-11-06T06:10:11.450Z,2.00
2022-11-06T06:12:40.026Z,2.10
2022-11-06T06:15:08.969Z,2.30
2022-11-06T06:17:37.450Z,2.50
2022-11-06T06:20:07.113Z,2.60
2022-11-06T06:22:35.188Z,2.70
2022-11-06T06:25:03.404Z,2.90
2022-11-06T06:27:32.857Z,2.90
2022-11-06T06:30:00.929Z,2.90
2022-11-06T06:32:29.044Z,2.90
2022-11-06T06:34:57.123Z,3.00
2022-11-06T06:37:25.133Z,3.00
2022-11-06T06:39:53.173Z,3.10
2022-11-06T06:42:21.600Z,3.10
2022-11-06T06:44:51.041Z,3.10
2022-11-06T06:47:19.105Z,3.10
2022-11-06T06:49:47.685Z,2.90
2022-11-06T06:52:16.204Z,2.80
2022-11-06T06:54:44.250Z,2.80
2022-11-06T06:57:12.298Z,2.80
2022-11-06T06:59:40.361Z,2.70
2022-11-06T07:02:13.841Z,2.80
2022-11-06T07:04:41.896Z,3.00
2022-11-06T07:07:09.915Z,3.10
2022-11-06T07:09:38.143Z,3.20
2022-11-06T07:12:06.770Z,3.30
2022-11-06T07:14:34.987Z,3.40
2022-11-06T07:17:03.053Z,3.70
2022-11-06T07:19:32.596Z,3.70
2022-11-06T07:22:01.012Z,3.80
2022-11-06T07:24:29.095Z,4.00
2022-11-06T07:26:57.301Z,4.20
2022-11-06T07:29:25.454Z,4.40
2022-11-06T07:31:55.975Z,4.50
2022-11-06T07:34:24.469Z,4.70
2022-11-06T07:36:54.015Z,4.90
2022-11-06T07:39:27.756Z,5.20
2022-11-06T07:41:55.978Z,5.40
2022-11-06T07:44:24.166Z,5.60
2022-11-06T07:46:52.480Z,5.80
2022-11-06T07:49:20.790Z,6.20
2022-11-06T07:51:49.011Z,6.50
2022-11-06T07:54:18.599Z,6.60
2022-11-06T07:56:46.949Z,6.70
2022-11-06T07:59:15.198Z,6.80
2022-11-06T08:01:43.350Z,6.90
2022-11-06T08:04:12.237Z,7.10
2022-11-06T08:06:40.411Z,7.20
2022-11-06T08:09:10.191Z,7.30
2022-11-06T08:11:39.708Z,7.50
2022-11-06T08:14:16.373Z,7.50
2022-11-06T08:16:44.417Z,7.80
2022-11-06T08:19:12.429Z,8.40
2022-11-06T08:21:40.529Z,9.00
2022-11-06T08:24:09.188Z,9.60
2022-11-06T08:26:37.231Z,9.30
2022-11-06T08:29:06.724Z,9.40
2022-11-06T08:31:34.757Z,9.40
2022-11-06T08:34:02.794Z,9.80
2022-11-06T08:36:31.091Z,10.30
2022-11-06T08:38:59.139Z,10.40
2022-11-06T08:41:27.200Z,10.40
2022-11-06T08:43:55.251Z,9.90
2022-11-06T08:46:24.765Z,9.70
2022-11-06T08:48:52.804Z,9.70
2022-11-06T08:51:20.909Z,9.70
2022-11-06T08:53:49.053Z,9.70
2022-11-06T08:56:17.388Z,9.60
2022-11-06T08:58:45.616Z,9.40
2022-11-06T09:01:14.202Z,9.10
2022-11-06T09:03:43.696Z,9.00
2022-11-06T09:06:11.803Z,9.00
2022-11-06T09:08:39.918Z,9.10
2022-11-06T09:11:08.700Z,9.30
2022-11-06T09:13:39.436Z,9.50
2022-11-06T09:16:14.306Z,9.70
2022-11-06T09:18:45.295Z,9.90
2022-11-06T09:21:13.419Z,9.80
2022-11-06T09:23:41.742Z,9.70
2022-11-06T09:26:10.037Z,9.60
2022-11-06T09:28:38.341Z,9.70
2022-11-06T09:31:10.231Z,9.80
2022-11-06T09:33:39.786Z,9.80
2022-11-06T09:36:10.507Z,9.90
2022-11-06T09:38:40.174Z,9.90
2022-11-06T09:41:08.808Z,10.20
2022-11-06T09:44:07.194Z,10.40
2022-11-06T09:46:43.091Z,10.70
2022-11-06T09:49:24.730Z,11.10
2022-11-06T09:52:07.909Z,11.50
2022-11-06T09:54:50.758Z,11.80
2022-11-06T09:57:31.461Z,12.10
2022-11-06T10:00:02.766Z,12.30
2022-11-06T10:02:38.986Z,12.50
2022-11-06T10:05:23.676Z,12.60
2022-11-06T10:07:57.721Z,12.50
2022-11-06T10:10:48.552Z,12.20
2022-11-06T10:13:39.974Z,12.20
2022-11-06T10:16:23.151Z,12.30
2022-11-06T10:19:08.704Z,12.50
2022-11-06T10:21:50.041Z,12.60
2022-11-06T10:24:31.489Z,12.60
2022-11-06T10:27:00.011Z,12.80
2022-11-06T10:29:58.532Z,13.00
2022-11-06T10:33:36.049Z,13.60
2022-11-06T10:36:13.089Z,14.40
2022-11-06T10:38:47.307Z,14.40
2022-11-06T10:41:24.177Z,14.40
2022-11-06T10:44:02.124Z,14.50
2022-11-06T10:46:37.942Z,14.80
2022-11-06T10:49:23.856Z,14.00
2022-11-06T10:52:20.739Z,13.40
2022-11-06T10:55:10.770Z,12.80
2022-11-06T10:57:48.209Z,12.20
2022-11-06T11:00:18.668Z,12.20
2022-11-06T11:02:53.341Z,12.60
2022-11-06T11:05:26.596Z,12.70
2022-11-06T11:07:58.285Z,12.60
2022-11-06T11:10:36.237Z,12.40
2022-11-06T11:13:21.234Z,12.30
2022-11-06T11:15:53.445Z,12.50
2022-11-06T11:18:31.348Z,13.20
2022-11-06T11:21:27.994Z,13.60
2022-11-06T11:24:15.052Z,13.70
2022-11-06T11:26:56.779Z,13.50
2022-11-06T11:29:30.569Z,13.20
2022-11-06T11:32:03.915Z,13.00
2022-11-06T11:34:41.408Z,13.00
2022-11-06T11:37:29.254Z,12.80
2022-11-06T11:40:22.547Z,12.50
2022-11-06T11:42:51.991Z,12.30
2022-11-06T11:45:28.021Z,12.40
2022-11-06T11:48:15.506Z,12.30
2022-11-06T11:50:46.744Z,12.20
2022-11-06T11:53:22.131Z,12.10
2022-11-06T11:55:53.541Z,12.00
2022-11-06T11:58:25.006Z,12.10
2022-11-06T12:00:59.703Z,12.30
2022-11-06T12:03:35.858Z,12.60
2022-11-06T12:06:11.331Z,12.80
2022-11-06T12:08:46.327Z,12.80
2022-11-06T12:11:21.496Z,12.90
2022-11-06T12:14:36.119Z,13.10
2022-11-06T12:17:15.804Z,12.90
2022-11-06T12:19:53.271Z,12.80
2022-11-06T12:22:30.300Z,12.90
2022-11-06T12:25:03.755Z,12.70
2022-11-06T12:27:39.521Z,12.30
2022-11-06T12:30:13.229Z,11.90
2022-11-06T12:33:07.424Z,11.60
2022-11-06T12:35:43.893Z,11.40
2022-11-06T12:38:31.612Z,11.10
2022-11-06T12:41:06.344Z,11.00
2022-11-06T12:43:45.579Z,10.90
2022-11-06T12:46:46.519Z,10.80
2022-11-06T12:50:33.393Z,10.90
2022-11-06T12:53:24.685Z,11.00
2022-11-06T12:56:02.792Z,11.40
2022-11-06T12:58:59.997Z,11.70
2022-11-06T13:01:46.636Z,11.70
2022-11-06T13:04:37.245Z,11.60
2022-11-06T13:07:58.032Z,11.60
2022-11-06T13:10:46.589Z,11.50
2022-11-06T13:14:06.758Z,11.40
2022-11-06T13:16:49.477Z,11.20
2022-11-06T13:19:37.451Z,11.20
2022-11-06T13:22:22.051Z,11.20
2022-11-06T13:25:02.063Z,11.30
2022-11-06T13:27:41.123Z,11.50
2022-11-06T13:30:18.606Z,11.60
2022-11-06T13:33:06.293Z,11.80
2022-11-06T13:35:46.750Z,11.90
2022-11-06T13:38:27.442Z,11.80
2022-11-06T13:41:03.656Z,11.60
2022-11-06T13:43:46.197Z,11.40
2022-11-06T13:46:29.092Z,11.10
2022-11-06T13:49:32.672Z,10.90
2022-11-06T13:52:04.480Z,10.80
2022-11-06T13:55:04.860Z,10.70
2022-11-06T13:58:17.154Z,10.70
2022-11-06T14:01:10.543Z,10.80
2022-11-06T14:04:16.359Z,10.70
2022-11-06T14:06:49.061Z,10.60
2022-11-06T14:09:23.343Z,10.60
2022-11-06T14:14:43.293Z,10.50
2022-11-06T14:17:22.735Z,10.40
2022-11-06T14:20:32.786Z,10.40
2022-11-06T14:23:52.378Z,10.30
2022-11-06T14:26:42.696Z,10.30
2022-11-06T14:30:00.536Z,10.20
2022-11-06T14:32:56.282Z,10.20
2022-11-06T14:35:55.467Z,10.20
2022-11-06T14:38:45.794Z,10.10
2022-11-06T14:41:55.571Z,10.00
2022-11-06T14:44:43.574Z,10.00
2022-11-06T14:47:52.871Z,9.90
2022-11-06T14:50:38.153Z,9.90
2022-11-06T14:53:23.117Z,9.80
2022-11-06T14:56:01.568Z,9.80
2022-11-06T14:58:34.158Z,9.80
2022-11-06T15:01:17.845Z,9.60
2022-11-06T15:03:57.002Z,9.50
2022-11-06T15:06:49.936Z,9.40
2022-11-06T15:09:59.241Z,9.20
2022-11-06T15:13:14.552Z,9.10
2022-11-06T15:15:47.081Z,9.00
2022-11-06T15:18:25.148Z,8.90
2022-11-06T15:20:58.422Z,8.80
2022-11-06T15:23:32.325Z,8.80
2022-11-06T15:26:09.705Z,8.80
2022-11-06T15:28:50.130Z,8.70
2022-11-06T15:31:21.521Z,8.70
2022-11-06T15:34:01.333Z,8.60
2022-11-06T15:36:47.950Z,8.60
2022-11-06T15:39:40.880Z,8.60
2022-11-06T15:42:22.425Z,8.60
2022-11-06T15:44:51.729Z,8.60
2022-11-06T15:47:26.198Z,8.50
2022-11-06T15:50:15.803Z,8.60
2022-11-06T15:52:48.682Z,8.60
2022-11-06T15:55:30.847Z,8.70
2022-11-06T15:58:09.422Z,8.80
2022-11-06T16:00:42.313Z,8.80
2022-11-06T16:03:16.802Z,8.80
2022-11-06T16:05:47.757Z,8.80
2022-11-06T16:08:23.194Z,8.90
2022-11-06T16:10:53.246Z,8.90
2022-11-06T16:13:25.373Z,8.90
2022-11-06T16:15:57.403Z,8.90
2022-11-06T16:18:31.244Z,8.90
2022-11-06T16:21:09.457Z,8.80
2022-11-06T16:23:44.231Z,8.90
2022-11-06T16:26:16.369Z,8.80
2022-11-06T16:28:47.925Z,8.70
2022-11-06T16:31:20.202Z,8.50
2022-11-06T16:34:00.536Z,8.40
2022-11-06T16:36:31.710Z,8.30
2022-11-06T16:39:49.845Z,8.30
2022-11-06T16:42:30.796Z,8.20
2022-11-06T16:45:20.521Z,8.20
2022-11-06T16:48:35.542Z,8.20
2022-11-06T16:51:15.098Z,8.20
2022-11-06T16:53:58.460Z,8.20
2022-11-06T16:56:31.623Z,8.30
2022-11-06T16:59:08.217Z,8.30
2022-11-06T17:01:44.658Z,8.40
2022-11-06T17:04:22.550Z,8.40
2022-11-06T17:06:54.134Z,8.50
2022-11-06T17:09:32.325Z,8.50
2022-11-06T17:12:04.667Z,8.60
2022-11-06T17:14:34.386Z,8.60
2022-11-06T17:17:03.821Z,8.70
2022-11-06T17:19:32.865Z,8.60
2022-11-06T17:22:01.752Z,8.60
2022-11-06T17:24:38.062Z,8.60
2022-11-06T17:27:10.457Z,8.70
2022-11-06T17:29:39.656Z,8.60
2022-11-06T17:32:10.267Z,8.70
2022-11-06T17:34:41.841Z,8.80
2022-11-06T17:37:12.766Z,8.80
2022-11-06T17:39:40.816Z,8.80
2022-11-06T17:42:13.051Z,8.80
2022-11-06T17:44:42.667Z,8.80
2022-11-06T17:47:10.897Z,8.80
2022-11-06T17:49:39.353Z,8.70
2022-11-06T17:52:07.798Z,8.60
2022-11-06T17:54:37.286Z,8.70
2022-11-06T17:57:09.594Z,8.70
2022-11-06T17:59:37.842Z,8.90
2022-11-06T18:02:07.324Z,9.00
2022-11-06T18:04:35.649Z,9.10
2022-11-06T18:07:04.654Z,9.10
2022-11-06T18:09:33.352Z,9.20
2022-11-06T18:12:16.085Z,9.20
2022-11-06T18:14:50.183Z,9.20
2022-11-06T18:17:20.187Z,9.20
2022-11-06T18:19:55.011Z,9.20
2022-11-06T18:22:23.608Z,9.30
2022-11-06T18:24:56.538Z,9.30
2022-11-06T18:27:29.951Z,9.30
2022-11-06T18:30:02.769Z,9.30
2022-11-06T18:32:31.150Z,9.40
2022-11-06T18:35:01.991Z,9.40
2022-11-06T18:37:46.508Z,9.40
2022-11-06T18:40:26.202Z,9.30
2022-11-06T18:42:56.710Z,9.40
2022-11-06T18:45:27.014Z,9.50
2022-11-06T18:47:56.279Z,9.40
2022-11-06T18:50:26.927Z,9.40
2022-11-06T18:52:58.197Z,9.40
2022-11-06T18:55:26.610Z,9.40
2022-11-06T18:57:57.563Z,9.20
2022-11-06T19:00:27.672Z,9.20
2022-11-06T19:02:56.618Z,8.90
2022-11-06T19:05:24.850Z,8.80
2022-11-06T19:07:57.663Z,8.70
2022-11-06T19:10:31.555Z,8.60
2022-11-06T19:13:00.983Z,8.60
2022-11-06T19:15:29.105Z,8.60
2022-11-06T19:17:57.577Z,8.60
2022-11-06T19:20:28.320Z,8.60
2022-11-06T19:22:56.591Z,8.60
2022-11-06T19:25:25.257Z,8.80
2022-11-06T19:27:56.250Z,8.80
2022-11-06T19:30:25.851Z,8.80
2022-11-06T19:32:53.927Z,8.80
2022-11-06T19:35:22.302Z,8.90
2022-11-06T19:37:50.416Z,9.00
2022-11-06T19:40:19.799Z,9.00
2022-11-06T19:42:48.289Z,8.90
2022-11-06T19:45:18.029Z,8.80
2022-11-06T19:47:50.308Z,8.70
2022-11-06T19:50:33.385Z,8.70
2022-11-06T19:53:08.806Z,8.70
2022-11-06T19:55:40.615Z,8.70
2022-11-06T19:58:08.739Z,8.60
2022-11-06T20:00:39.018Z,8.60
2022-11-06T20:03:11.017Z,8.70
2022-11-06T20:05:40.820Z,8.70
2022-11-06T20:08:19.680Z,8.70
2022-11-06T20:10:47.839Z,8.80
2022-11-06T20:13:16.345Z,8.80
2022-11-06T20:15:44.783Z,8.80
2022-11-06T20:18:14.210Z,8.80
2022-11-06T20:20:42.587Z,8.80
2022-11-06T20:23:12.253Z,8.80
2022-11-06T20:25:40.606Z,8.90
2022-11-06T20:28:08.917Z,8.90
2022-11-06T20:30:38.665Z,8.90
2022-11-06T20:33:07.508Z,8.90
2022-11-06T20:35:37.398Z,8.90
2022-11-06T20:38:08.044Z,8.90
2022-11-06T20:40:36.312Z,8.90
2022-11-06T20:43:06.377Z,8.90
2022-11-06T20:45:37.138Z,8.90
2022-11-06T20:48:09.047Z,9.00
2022-11-06T20:50:39.406Z,9.00
2022-11-06T20:53:12.642Z,9.00
2022-11-06T20:55:41.408Z,9.00
2022-11-06T20:58:10.870Z,9.10
2022-11-06T21:00:41.812Z,9.10
2022-11-06T21:03:11.272Z,9.10
2022-11-06T21:05:41.880Z,9.10
2022-11-06T21:08:11.081Z,9.10
2022-11-06T21:13:23.889Z,9.10
2022-11-06T21:16:10.387Z,9.10
2022-11-06T21:18:41.278Z,9.10
2022-11-06T21:21:21.201Z,9.10
2022-11-06T21:23:51.728Z,9.20
2022-11-06T21:26:24.061Z,9.20
2022-11-06T21:28:53.861Z,9.20
2022-11-06T21:31:29.501Z,9.20
2022-11-06T21:34:01.196Z,9.20
2022-11-06T21:36:33.542Z,9.30
2022-11-06T21:39:07.723Z,9.30
2022-11-06T21:41:37.147Z,9.30
2022-11-06T21:44:08.440Z,9.30
2022-11-06T21:46:45.104Z,9.30
2022-11-06T21:49:14.598Z,9.30
2022-11-06T21:51:48.374Z,9.30
2022-11-06T21:54:36.992Z,9.30
2022-11-06T21:57:06.471Z,9.40
2022-11-06T22:02:33.210Z,9.40
2022-11-06T22:05:03.519Z,9.40
2022-11-06T22:07:33.357Z,9.40
2022-11-06T22:10:01.776Z,9.50
2022-11-06T22:12:29.909Z,9.40
2022-11-06T22:14:58.171Z,9.50
2022-11-06T22:17:27.717Z,9.40
2022-11-06T22:19:56.262Z,9.50
2022-11-06T22:22:25.805Z,9.50
2022-11-06T22:24:55.613Z,9.60
2022-11-06T22:27:24.158Z,9.50
2022-11-06T22:29:52.315Z,9.50
2022-11-06T22:32:20.544Z,9.50
2022-11-06T22:34:48.765Z,9.60
2022-11-06T22:37:18.596Z,9.60
2022-11-06T22:39:49.453Z,9.60
2022-11-06T22:42:19.221Z,9.60
2022-11-06T22:44:47.427Z,9.70
2022-11-06T22:47:15.835Z,9.70
2022-11-06T22:49:44.094Z,9.80
2022-11-06T22:52:12.520Z,9.80
2022-11-06T22:54:40.819Z,9.80
2022-11-06T22:57:09.045Z,9.80
2022-11-06T22:59:38.680Z,9.80
2022-11-06T23:02:06.995Z,9.90
2022-11-06T23:04:36.332Z,10.00
2022-11-06T23:07:04.541Z,10.00
2022-11-06T23:09:32.772Z,10.00
2022-11-06T23:12:02.081Z,10.00
2022-11-06T23:14:30.704Z,10.00
2022-11-06T23:17:01.799Z,10.00
2022-11-06T23:19:32.835Z,10.00
2022-11-06T23:22:18.582Z,10.10
2022-11-06T23:24:46.992Z,10.10
2022-11-06T23:27:15.739Z,10.10
2022-11-06T23:29:44.006Z,10.10
2022-11-06T23:32:14.386Z,10.00
2022-11-06T23:34:44.629Z,10.00
2022-11-06T23:37:12.974Z,10.00
2022-11-06T23:39:41.366Z,10.00
2022-11-06T23:42:10.052Z,10.10
2022-11-06T23:44:55.618Z,10.20
2022-11-06T23:47:25.428Z,10.40
2022-11-06T23:49:53.896Z,10.60
2022-11-06T23:52:22.456Z,10.60
2022-11-06T23:54:50.758Z,10.60
2022-11-06T23:57:19.271Z,10.60
2022-11-06T23:59:48.121Z,10.60
